Time;durP1;ratioP1;P1;durP2;ratioP2;P2;SDS_P1;SDS_P2;PMS_P1;PMS_P2;Temp;Humidity;BMP_temperature;BMP_pressure;BME280_temperature;BME280_humidity;BME280_pressure;Samples;Min_cycle;Max_cycle;Signal;HPM_P1;HPM_P2
2023/10/29 00:00:33;;;;;;;2.03;1.13;;;14.20;99.90;;;;;;5055320;28;20171;-65
2023/10/29 00:02:59;;;;;;;3.30;1.20;;;14.20;99.90;;;;;;5054976;28;20640;-64
2023/10/29 00:05:24;;;;;;;2.92;1.38;;;14.10;99.90;;;;;;5054867;28;20171;-64
2023/10/29 00:07:50;;;;;;;3.05;1.17;;;14.20;99.90;;;;;;5054745;28;20237;-64
2023/10/29 00:10:19;;;;;;;2.15;1.20;;;14.20;99.90;;;;;;5054749;28;20172;-65
2023/10/29 00:12:44;;;;;;;3.63;1.23;;;14.10;99.90;;;;;;5054639;28;20262;-64
2023/10/29 00:15:10;;;;;;;2.47;1.20;;;14.10;99.90;;;;;;5054759;28;20258;-64
2023/10/29 00:17:36;;;;;;;2.30;1.05;;;14.10;99.90;;;;;;5054601;28;20202;-64
2023/10/29 00:20:06;;;;;;;3.28;1.13;;;14.10;99.90;;;;;;5053006;28;20601;-64
2023/10/29 00:22:32;;;;;;;2.22;1.00;;;14.20;99.90;;;;;;5054531;28;20581;-65
2023/10/29 00:24:57;;;;;;;2.38;0.90;;;14.20;99.90;;;;;;5054363;28;20246;-64
2023/10/29 00:27:23;;;;;;;1.85;0.80;;;14.20;99.90;;;;;;5054054;28;20175;-64
2023/10/29 00:29:49;;;;;;;2.28;0.98;;;14.10;99.90;;;;;;5054549;28;20253;-64
2023/10/29 00:32:15;;;;;;;2.80;0.90;;;14.10;99.90;;;;;;5054375;28;20176;-64
2023/10/29 00:34:41;;;;;;;2.28;1.00;;;14.10;99.90;;;;;;5054392;28;20190;-64
2023/10/29 00:37:07;;;;;;;2.58;1.00;;;14.10;99.90;;;;;;5053976;28;20171;-64
2023/10/29 00:39:32;;;;;;;2.60;1.17;;;14.00;99.90;;;;;;5052873;28;20171;-64
2023/10/29 00:41:58;;;;;;;2.53;1.13;;;14.10;99.90;;;;;;5054001;28;20266;-64
2023/10/29 00:44:25;;;;;;;1.20;0.85;;;14.10;99.90;;;;;;5054212;28;20183;-64
2023/10/29 00:46:50;;;;;;;1.67;1.02;;;14.10;99.90;;;;;;5054173;28;20206;-64
2023/10/29 00:49:16;;;;;;;3.53;1.00;;;14.20;99.90;;;;;;5053965;28;20584;-64
2023/10/29 00:51:44;;;;;;;2.05;1.23;;;14.10;99.90;;;;;;5053955;28;20179;-64
2023/10/29 00:54:09;;;;;;;2.42;1.17;;;14.20;99.90;;;;;;5053817;28;20524;-63
2023/10/29 00:56:35;;;;;;;3.33;1.23;;;14.10;99.90;;;;;;5053700;28;20262;-64
2023/10/29 00:59:02;;;;;;;4.20;1.27;;;14.20;99.90;;;;;;5054003;28;20211;-63
2023/10/29 01:01:27;;;;;;;2.42;1.20;;;14.20;99.90;;;;;;5053816;28;20171;-65
2023/10/29 01:03:53;;;;;;;3.25;1.13;;;14.10;99.90;;;;;;5053645;28;20182;-64
2023/10/29 01:06:19;;;;;;;4.07;1.30;;;14.10;99.90;;;;;;5053764;28;20250;-64
2023/10/29 01:08:45;;;;;;;3.33;1.20;;;14.10;99.90;;;;;;5053591;28;20628;-64
2023/10/29 01:11:11;;;;;;;2.58;1.00;;;14.10;99.90;;;;;;5053447;28;20191;-64
2023/10/29 01:13:36;;;;;;;2.33;1.00;;;14.10;99.90;;;;;;5053751;28;20175;-65
2023/10/29 01:16:04;;;;;;;1.33;1.00;;;14.00;99.90;;;;;;5053597;28;20236;-64
2023/10/29 01:18:31;;;;;;;1.27;1.10;;;14.00;99.90;;;;;;5053442;28;20207;-65
2023/10/29 01:20:57;;;;;;;2.75;0.98;;;14.00;99.90;;;;;;5053560;28;20635;-65
2023/10/29 01:23:23;;;;;;;1.85;1.00;;;13.90;99.90;;;;;;5053318;28;20179;-64
2023/10/29 01:25:48;;;;;;;2.67;0.90;;;13.80;99.90;;;;;;5053536;28;20207;-64
2023/10/29 01:28:14;;;;;;;1.30;0.82;;;13.80;99.90;;;;;;5053481;28;20184;-64
2023/10/29 01:30:40;;;;;;;2.40;1.00;;;13.80;99.90;;;;;;5052264;28;20210;-64
2023/10/29 01:33:05;;;;;;;1.05;0.95;;;13.70;99.90;;;;;;5053318;28;20620;-64
2023/10/29 01:35:31;;;;;;;2.13;1.05;;;13.70;99.90;;;;;;5053179;28;20229;-64
2023/10/29 01:37:56;;;;;;;1.75;0.80;;;13.80;99.90;;;;;;5053078;28;20245;-65
2023/10/29 01:40:22;;;;;;;1.92;1.00;;;13.80;99.90;;;;;;5052523;28;20629;-64
2023/10/29 01:42:49;;;;;;;1.80;0.90;;;13.70;99.90;;;;;;5053078;28;20263;-64
2023/10/29 01:45:16;;;;;;;4.70;0.90;;;13.80;99.90;;;;;;5053299;28;20175;-64
2023/10/29 01:47:42;;;;;;;1.88;0.90;;;13.80;99.90;;;;;;5053143;28;20663;-64
2023/10/29 01:50:09;;;;;;;2.15;0.88;;;13.80;99.90;;;;;;5053123;28;20203;-64
2023/10/29 01:52:38;;;;;;;2.67;1.13;;;13.90;99.90;;;;;;5053041;28;20180;-65
2023/10/29 01:55:08;;;;;;;2.83;1.05;;;13.80;99.90;;;;;;5053229;28;20199;-64
2023/10/29 01:57:35;;;;;;;1.35;1.00;;;13.90;99.90;;;;;;5053084;28;20215;-63
2023/10/29 02:00:00;;;;;;;1.17;0.95;;;13.90;99.90;;;;;;5053154;28;20651;-64
2023/10/29 02:02:26;;;;;;;1.42;0.75;;;13.80;99.90;;;;;;5053017;28;20183;-64
2023/10/29 02:04:52;;;;;;;2.45;1.00;;;13.80;99.90;;;;;;5052923;28;20176;-64
2023/10/29 02:07:17;;;;;;;2.15;1.20;;;13.90;99.90;;;;;;5052900;28;20541;-65
2023/10/29 02:09:43;;;;;;;3.85;1.00;;;13.90;99.90;;;;;;5053231;28;20179;-64
2023/10/29 02:12:08;;;;;;;1.85;0.90;;;13.90;99.90;;;;;;5053014;28;20254;-64
2023/10/29 02:14:36;;;;;;;1.48;0.77;;;13.90;99.90;;;;;;5052970;28;20193;-64
2023/10/29 02:17:02;;;;;;;2.83;1.00;;;13.90;99.90;;;;;;5052709;28;20179;-64
2023/10/29 02:19:27;;;;;;;1.55;1.00;;;13.90;99.90;;;;;;5052980;28;20180;-64
2023/10/29 02:21:54;;;;;;;2.45;0.82;;;14.00;99.90;;;;;;5053000;28;20674;-65
2023/10/29 02:24:20;;;;;;;1.23;0.80;;;14.00;99.90;;;;;;5052959;28;20172;-65
2023/10/29 02:26:45;;;;;;;2.78;1.02;;;14.00;99.90;;;;;;5052885;28;20579;-63
2023/10/29 02:29:11;;;;;;;2.10;0.90;;;14.00;99.90;;;;;;5052929;28;20229;-64
2023/10/29 02:31:36;;;;;;;3.10;0.90;;;13.90;99.90;;;;;;5052747;28;20218;-64
2023/10/29 02:34:02;;;;;;;3.65;0.93;;;13.90;99.90;;;;;;5052621;28;20244;-63
2023/10/29 02:36:28;;;;;;;1.67;0.70;;;13.80;99.90;;;;;;5052591;28;20199;-64
2023/10/29 02:38:53;;;;;;;0.95;0.70;;;13.80;99.90;;;;;;5052751;28;20211;-65
2023/10/29 02:41:19;;;;;;;2.05;0.85;;;13.90;99.90;;;;;;5052622;28;20176;-64
2023/10/29 02:43:45;;;;;;;2.80;1.10;;;13.90;99.90;;;;;;5052663;28;20183;-64
2023/10/29 02:46:10;;;;;;;4.88;0.98;;;13.80;99.90;;;;;;5052672;28;20176;-63
2023/10/29 02:48:37;;;;;;;2.90;0.80;;;13.80;99.90;;;;;;5052547;28;20179;-64
2023/10/29 02:51:03;;;;;;;2.55;1.00;;;13.70;99.90;;;;;;5054186;28;20176;-64
2023/10/29 02:53:28;;;;;;;2.55;1.00;;;13.70;99.90;;;;;;5056592;28;20178;-64
2023/10/29 02:55:59;;;;;;;2.60;1.10;;;13.80;99.90;;;;;;5056259;28;20172;-64
2023/10/29 02:58:24;;;;;;;2.33;1.15;;;13.70;99.90;;;;;;5056048;28;20215;-64
2023/10/29 03:00:50;;;;;;;4.13;0.98;;;13.70;99.90;;;;;;5056086;28;20182;-65
2023/10/29 03:03:15;;;;;;;1.85;0.82;;;13.80;99.90;;;;;;5055911;28;20603;-64
2023/10/29 03:05:41;;;;;;;2.45;1.20;;;13.80;99.90;;;;;;5055884;28;20190;-64
2023/10/29 03:08:07;;;;;;;2.47;0.82;;;13.80;99.90;;;;;;5056142;28;20258;-64
2023/10/29 03:10:32;;;;;;;3.25;0.82;;;13.70;99.90;;;;;;5056015;28;20172;-64
2023/10/29 03:12:58;;;;;;;2.38;1.02;;;13.80;99.90;;;;;;5055788;28;20547;-64
2023/10/29 03:15:25;;;;;;;3.58;1.02;;;13.80;99.90;;;;;;5055759;28;20712;-64
2023/10/29 03:17:50;;;;;;;3.42;1.10;;;13.90;99.90;;;;;;5054369;28;20218;-64
2023/10/29 03:20:16;;;;;;;2.95;0.88;;;13.90;99.90;;;;;;5055445;28;20223;-64
2023/10/29 03:22:42;;;;;;;2.17;0.95;;;13.70;99.90;;;;;;5055787;28;20183;-65
2023/10/29 03:25:08;;;;;;;4.35;1.17;;;13.70;99.90;;;;;;5055553;28;20564;-64
2023/10/29 03:27:34;;;;;;;4.85;1.25;;;13.60;99.90;;;;;;5055595;28;20175;-65
2023/10/29 03:30:00;;;;;;;5.05;1.00;;;13.50;99.90;;;;;;5055550;28;20175;-64
2023/10/29 03:32:25;;;;;;;2.15;0.70;;;13.50;99.90;;;;;;5055429;28;20178;-64
2023/10/29 03:34:51;;;;;;;3.50;0.80;;;13.30;99.90;;;;;;5055251;28;20175;-64
2023/10/29 03:37:18;;;;;;;4.35;1.05;;;13.30;99.90;;;;;;5055444;28;20248;-64
2023/10/29 03:39:43;;;;;;;4.43;1.10;;;13.20;99.90;;;;;;5055433;28;20648;-64
2023/10/29 03:42:09;;;;;;;5.22;1.48;;;13.30;99.90;;;;;;5055335;28;20175;-62
2023/10/29 03:44:35;;;;;;;3.33;1.10;;;13.30;99.90;;;;;;5055281;28;20641;-65
2023/10/29 03:47:01;;;;;;;4.07;1.27;;;13.30;99.90;;;;;;5055237;28;20207;-64
2023/10/29 03:49:26;;;;;;;4.93;1.20;;;13.30;99.90;;;;;;5055091;28;20601;-64
2023/10/29 03:51:52;;;;;;;5.22;1.20;;;13.30;99.90;;;;;;5055323;28;20171;-64
2023/10/29 03:54:17;;;;;;;3.83;1.08;;;13.30;99.90;;;;;;5055252;28;20179;-64
2023/10/29 03:56:43;;;;;;;3.03;1.00;;;13.30;99.90;;;;;;5055078;28;20199;-64
2023/10/29 03:59:09;;;;;;;2.38;0.85;;;13.40;99.90;;;;;;5054909;28;20211;-64
2023/10/29 04:01:35;;;;;;;4.20;1.15;;;13.30;99.90;;;;;;5054727;28;20179;-64
2023/10/29 04:04:02;;;;;;;4.68;1.10;;;13.20;99.90;;;;;;5054354;28;20179;-63
2023/10/29 04:06:28;;;;;;;3.40;1.27;;;13.20;99.90;;;;;;5054638;28;20183;-64
2023/10/29 04:08:54;;;;;;;2.72;1.08;;;13.20;99.90;;;;;;5054889;28;20182;-65
2023/10/29 04:11:19;;;;;;;5.03;1.42;;;13.20;99.90;;;;;;5054631;28;20178;-64
2023/10/29 04:13:46;;;;;;;3.33;1.17;;;13.20;99.90;;;;;;5054821;28;20260;-64
2023/10/29 04:16:12;;;;;;;3.65;1.13;;;13.20;99.90;;;;;;5054558;28;20179;-64
2023/10/29 04:18:38;;;;;;;2.83;1.25;;;13.20;99.90;;;;;;5053253;28;20291;-64
2023/10/29 04:21:07;;;;;;;4.70;1.10;;;13.20;99.90;;;;;;5054613;28;20218;-64
2023/10/29 04:23:33;;;;;;;4.53;1.38;;;13.20;99.90;;;;;;5054653;28;20184;-64
2023/10/29 04:25:58;;;;;;;4.45;1.33;;;13.20;99.90;;;;;;5054298;28;20183;-64
2023/10/29 04:28:24;;;;;;;3.67;1.50;;;13.10;99.90;;;;;;5054281;28;20186;-64
2023/10/29 04:30:53;;;;;;;5.70;1.48;;;13.20;99.90;;;;;;5054353;28;20525;-64
2023/10/29 04:33:19;;;;;;;4.65;1.30;;;13.10;99.90;;;;;;5054290;28;20167;-63
2023/10/29 04:35:44;;;;;;;3.55;1.20;;;13.10;99.90;;;;;;5054210;28;20591;-63
2023/10/29 04:38:10;;;;;;;3.80;1.30;;;13.10;99.90;;;;;;5054421;28;20215;-63
2023/10/29 04:40:36;;;;;;;3.90;1.20;;;13.00;99.90;;;;;;5054222;28;20641;-64
2023/10/29 04:43:01;;;;;;;4.60;1.30;;;13.00;99.90;;;;;;5054040;28;20176;-64
2023/10/29 04:45:27;;;;;;;3.30;1.25;;;13.00;99.90;;;;;;5054114;28;20171;-64
2023/10/29 04:47:52;;;;;;;5.90;1.10;;;13.00;99.90;;;;;;5053872;28;20179;-64
2023/10/29 04:50:18;;;;;;;2.30;0.80;;;13.00;99.90;;;;;;5054112;28;20199;-64
2023/10/29 04:52:44;;;;;;;2.40;1.15;;;12.90;99.90;;;;;;5054029;28;20181;-64
2023/10/29 04:55:09;;;;;;;4.78;1.08;;;12.80;99.90;;;;;;5052704;28;20253;-63
2023/10/29 04:57:35;;;;;;;2.97;1.00;;;12.80;99.90;;;;;;5053849;28;20199;-63
2023/10/29 05:00:01;;;;;;;1.88;0.82;;;12.80;99.90;;;;;;5053840;28;20236;-64
2023/10/29 05:02:27;;;;;;;1.77;0.95;;;12.90;99.90;;;;;;5053644;28;20171;-64
2023/10/29 05:04:53;;;;;;;3.78;0.95;;;12.90;99.90;;;;;;5053617;28;20171;-64
2023/10/29 05:07:19;;;;;;;2.55;0.82;;;12.90;99.90;;;;;;5053624;28;20247;-64
2023/10/29 05:09:45;;;;;;;2.28;1.00;;;12.80;99.90;;;;;;5053684;28;20544;-64
2023/10/29 05:12:11;;;;;;;4.13;0.93;;;12.90;99.90;;;;;;5053538;28;20167;-64
2023/10/29 05:14:36;;;;;;;3.33;1.30;;;12.90;99.90;;;;;;5052689;28;20175;-64
2023/10/29 05:17:02;;;;;;;3.33;0.95;;;12.80;99.90;;;;;;5053712;28;20176;-64
2023/10/29 05:19:28;;;;;;;4.00;1.13;;;12.90;99.90;;;;;;5053503;28;20761;-64
2023/10/29 05:21:54;;;;;;;3.85;1.30;;;12.90;99.90;;;;;;5053247;28;20226;-64
2023/10/29 05:24:20;;;;;;;3.70;1.20;;;12.80;99.90;;;;;;5053752;28;20704;-64
2023/10/29 05:26:46;;;;;;;5.07;1.58;;;12.90;99.90;;;;;;5053373;28;20174;-64
2023/10/29 05:29:12;;;;;;;6.55;1.40;;;12.90;99.90;;;;;;5053250;28;20257;-64
2023/10/29 05:31:38;;;;;;;4.63;1.10;;;12.90;99.90;;;;;;5053248;28;20183;-64
2023/10/29 05:34:03;;;;;;;4.60;1.70;;;12.90;99.90;;;;;;5053431;28;20636;-64
2023/10/29 05:36:29;;;;;;;4.63;1.30;;;12.90;99.90;;;;;;5053461;28;20186;-64
2023/10/29 05:38:55;;;;;;;9.07;1.70;;;12.80;99.90;;;;;;5053204;28;20207;-64
2023/10/29 05:41:20;;;;;;;6.07;1.73;;;12.90;99.90;;;;;;5053044;28;20174;-65
2023/10/29 05:43:46;;;;;;;6.72;1.50;;;12.90;99.90;;;;;;5053170;28;20174;-63
2023/10/29 05:46:12;;;;;;;4.47;1.63;;;12.90;99.90;;;;;;5053088;28;20583;-64
2023/10/29 05:48:39;;;;;;;4.47;1.70;;;12.90;99.90;;;;;;5053239;28;20529;-64
2023/10/29 05:51:04;;;;;;;5.65;1.60;;;12.90;99.90;;;;;;5053341;28;20184;-64
2023/10/29 05:53:30;;;;;;;7.43;1.77;;;13.00;99.90;;;;;;5053129;28;20237;-63
2023/10/29 05:55:56;;;;;;;7.22;1.70;;;13.00;99.90;;;;;;5053082;28;20171;-64
2023/10/29 05:58:24;;;;;;;6.93;1.77;;;13.00;99.90;;;;;;5052889;28;20684;-64
2023/10/29 06:00:50;;;;;;;7.95;1.92;;;13.00;99.90;;;;;;5052958;28;20168;-64
2023/10/29 06:03:16;;;;;;;6.15;2.03;;;12.90;99.90;;;;;;5052853;28;20178;-64
2023/10/29 06:05:42;;;;;;;5.70;1.65;;;12.90;99.90;;;;;;5053135;28;20171;-64
2023/10/29 06:08:07;;;;;;;6.05;2.17;;;12.80;99.90;;;;;;5053104;28;20259;-64
2023/10/29 06:10:33;;;;;;;7.82;2.35;;;12.80;99.90;;;;;;5052949;28;20180;-62
2023/10/29 06:12:59;;;;;;;6.43;2.00;;;12.70;99.90;;;;;;5052880;28;20172;-64
2023/10/29 06:15:26;;;;;;;9.07;1.90;;;12.80;99.90;;;;;;5052764;28;20187;-64
2023/10/29 06:17:53;;;;;;;5.95;2.00;;;12.80;99.90;;;;;;5052779;28;20298;-64
2023/10/29 06:20:20;;;;;;;6.47;2.20;;;12.80;99.90;;;;;;5052773;28;20224;-65
2023/10/29 06:22:47;;;;;;;7.65;2.78;;;12.70;99.90;;;;;;5052978;28;20302;-64
2023/10/29 06:25:13;;;;;;;6.72;2.30;;;12.80;99.90;;;;;;5053148;28;20683;-64
2023/10/29 06:27:39;;;;;;;6.82;1.90;;;12.70;99.90;;;;;;5056655;28;20182;-65
2023/10/29 06:30:06;;;;;;;9.60;2.80;;;12.60;99.90;;;;;;5056576;28;20266;-64
2023/10/29 06:32:32;;;;;;;6.93;2.08;;;12.60;99.90;;;;;;5056645;28;20186;-64
2023/10/29 06:34:57;;;;;;;8.00;2.30;;;12.70;99.90;;;;;;5056406;28;20267;-63
2023/10/29 06:37:23;;;;;;;6.80;2.13;;;12.70;99.90;;;;;;5056535;28;20183;-64
2023/10/29 06:39:49;;;;;;;7.78;2.25;;;12.60;99.90;;;;;;5056488;28;20172;-65
2023/10/29 06:42:14;;;;;;;8.13;2.45;;;12.60;99.90;;;;;;5056400;28;20175;-64
2023/10/29 06:44:40;;;;;;;7.50;2.22;;;12.50;99.90;;;;;;5056492;28;20180;-64
2023/10/29 06:47:06;;;;;;;7.30;1.92;;;12.60;99.90;;;;;;5056438;28;20529;-64
2023/10/29 06:49:31;;;;;;;9.43;2.30;;;12.70;99.90;;;;;;5056364;28;20266;-64
2023/10/29 06:51:57;;;;;;;6.93;2.13;;;12.60;99.90;;;;;;5056277;28;20573;-63
2023/10/29 06:54:23;;;;;;;9.07;2.35;;;12.60;99.90;;;;;;5056339;28;20187;-64
2023/10/29 06:56:48;;;;;;;7.75;2.45;;;12.60;99.90;;;;;;5056042;28;20178;-64
2023/10/29 06:59:14;;;;;;;10.63;2.45;;;12.60;99.90;;;;;;5055933;28;20206;-64
2023/10/29 07:01:40;;;;;;;7.60;1.95;;;12.60;99.90;;;;;;5055980;28;20258;-64
2023/10/29 07:04:06;;;;;;;11.00;2.72;;;12.60;99.90;;;;;;5056106;28;20179;-64
2023/10/29 07:06:32;;;;;;;8.13;2.30;;;12.50;99.90;;;;;;5056137;28;20304;-64
2023/10/29 07:08:58;;;;;;;6.78;2.30;;;12.60;99.90;;;;;;5055833;28;20270;-63
2023/10/29 07:11:23;;;;;;;7.65;2.85;;;12.50;99.90;;;;;;5055849;28;20175;-64
2023/10/29 07:13:49;;;;;;;7.40;2.10;;;12.60;99.90;;;;;;5055681;28;20651;-64
2023/10/29 07:16:16;;;;;;;10.18;2.65;;;12.60;99.90;;;;;;5055702;28;20182;-64
2023/10/29 07:18:43;;;;;;;7.25;2.25;;;12.60;99.90;;;;;;5055792;28;20203;-64
2023/10/29 07:21:08;;;;;;;8.07;2.40;;;12.70;99.90;;;;;;5055573;28;20227;-64
2023/10/29 07:23:34;;;;;;;13.15;2.67;;;12.70;99.90;;;;;;5055637;28;20171;-64
2023/10/29 07:26:00;;;;;;;12.60;2.88;;;12.60;99.90;;;;;;5055611;28;20214;-64
2023/10/29 07:28:28;;;;;;;6.40;2.22;;;12.70;99.90;;;;;;5055498;28;20190;-64
2023/10/29 07:30:54;;;;;;;8.80;2.50;;;12.70;99.90;;;;;;5055650;28;20574;-64
2023/10/29 07:33:19;;;;;;;9.05;2.55;;;12.70;99.90;;;;;;5055574;28;20171;-64
2023/10/29 07:35:45;;;;;;;8.93;2.20;;;12.80;99.90;;;;;;5055413;28;20540;-63
2023/10/29 07:38:11;;;;;;;7.55;2.35;;;12.80;99.90;;;;;;5054324;28;20199;-64
2023/10/29 07:40:36;;;;;;;7.40;2.10;;;12.80;99.90;;;;;;5055539;28;20258;-65
2023/10/29 07:43:03;;;;;;;7.82;2.22;;;12.80;99.90;;;;;;5055264;28;20171;-64
2023/10/29 07:45:29;;;;;;;6.97;2.40;;;12.90;99.90;;;;;;5055346;28;20353;-63
2023/10/29 07:47:55;;;;;;;8.70;2.60;;;13.00;99.90;;;;;;5055048;28;20183;-64
2023/10/29 07:50:21;;;;;;;7.75;2.10;;;13.00;99.90;;;;;;5055237;28;20172;-64
2023/10/29 07:52:47;;;;;;;7.78;2.50;;;13.10;99.90;;;;;;5055141;28;20266;-64
2023/10/29 07:55:13;;;;;;;8.25;2.40;;;13.20;99.90;;;;;;5055014;28;20707;-64
2023/10/29 07:57:38;;;;;;;8.77;2.88;;;13.20;99.90;;;;;;5054840;28;20333;-64
2023/10/29 08:00:09;;;;;;;7.68;2.30;;;13.10;99.90;;;;;;5055175;28;20258;-64
2023/10/29 08:02:35;;;;;;;9.23;2.85;;;13.10;99.90;;;;;;5053881;28;20616;-64
2023/10/29 08:05:01;;;;;;;7.93;2.08;;;13.20;99.90;;;;;;5054792;28;20183;-64
2023/10/29 08:07:29;;;;;;;8.75;2.30;;;13.20;99.90;;;;;;5054859;28;20171;-64
2023/10/29 08:09:56;;;;;;;6.90;2.10;;;13.20;99.90;;;;;;5054715;28;20172;-64
2023/10/29 08:12:22;;;;;;;7.35;2.60;;;13.20;99.90;;;;;;5054573;28;20258;-64
2023/10/29 08:14:48;;;;;;;7.57;2.15;;;13.30;99.90;;;;;;5054873;28;20589;-63
2023/10/29 08:17:17;;;;;;;8.05;2.10;;;13.40;99.90;;;;;;5054651;28;20222;-64
2023/10/29 08:19:46;;;;;;;10.77;2.55;;;13.50;99.90;;;;;;5054617;28;20177;-64
2023/10/29 08:22:11;;;;;;;9.88;2.97;;;13.50;99.90;;;;;;5054425;28;20227;-64
2023/10/29 08:24:37;;;;;;;9.32;2.53;;;13.50;99.90;;;;;;5054407;28;20171;-64
2023/10/29 08:27:06;;;;;;;8.90;2.47;;;13.50;99.90;;;;;;5054278;28;20186;-64
2023/10/29 08:29:34;;;;;;;8.85;2.75;;;13.60;99.90;;;;;;5054449;28;20191;-64
2023/10/29 08:32:00;;;;;;;10.40;3.00;;;13.60;99.90;;;;;;5054323;28;20179;-63
2023/10/29 08:34:26;;;;;;;8.48;2.33;;;13.60;99.90;;;;;;5054224;28;20179;-64
2023/10/29 08:36:52;;;;;;;10.00;2.80;;;13.60;99.90;;;;;;5054197;28;20182;-64
2023/10/29 08:39:17;;;;;;;9.40;2.50;;;13.50;99.90;;;;;;5049383;28;20211;-64
2023/10/29 08:41:43;;;;;;;9.50;2.97;;;13.50;99.90;;;;;;5052900;28;20218;-64
2023/10/29 08:44:09;;;;;;;8.18;2.10;;;13.60;99.90;;;;;;5054127;28;20199;-64
2023/10/29 08:46:34;;;;;;;10.13;2.90;;;13.50;99.90;;;;;;5053897;28;20594;-64
2023/10/29 08:49:00;;;;;;;8.23;2.72;;;13.40;99.90;;;;;;5053908;28;20179;-64
2023/10/29 08:51:25;;;;;;;6.45;2.53;;;13.40;99.90;;;;;;5053827;28;20250;-64
2023/10/29 08:53:51;;;;;;;10.40;2.50;;;13.40;99.90;;;;;;5053902;28;20254;-64
2023/10/29 08:56:17;;;;;;;7.00;2.20;;;13.50;99.90;;;;;;5053767;28;20175;-63
2023/10/29 08:58:42;;;;;;;10.45;2.63;;;13.60;99.90;;;;;;5053966;28;20218;-64
2023/10/29 09:01:12;;;;;;;8.40;2.55;;;13.60;99.90;;;;;;5053888;28;20179;-64
2023/10/29 09:03:38;;;;;;;5.80;2.35;;;13.60;99.90;;;;;;5053770;28;20171;-65
2023/10/29 09:06:04;;;;;;;11.95;2.80;;;13.70;99.90;;;;;;5053730;28;20175;-65
2023/10/29 09:08:37;;;;;;;9.57;3.20;;;13.60;99.90;;;;;;5053519;28;20221;-64
2023/10/29 09:11:03;;;;;;;11.85;3.08;;;13.50;99.90;;;;;;5053782;28;20191;-64
2023/10/29 09:13:29;;;;;;;13.38;2.97;;;13.60;99.90;;;;;;5053836;28;20175;-64
2023/10/29 09:15:55;;;;;;;6.78;2.35;;;13.70;99.90;;;;;;5053663;28;20171;-64
2023/10/29 09:18:21;;;;;;;7.20;2.75;;;13.70;99.90;;;;;;5053451;28;20546;-64
2023/10/29 09:20:47;;;;;;;6.07;2.38;;;13.90;99.90;;;;;;5053193;28;20219;-64
2023/10/29 09:23:14;;;;;;;9.23;2.40;;;13.90;99.90;;;;;;5053285;28;20175;-64
2023/10/29 09:25:45;;;;;;;8.68;2.20;;;13.90;99.90;;;;;;5053492;28;20651;-64
2023/10/29 09:28:12;;;;;;;6.75;2.47;;;13.90;99.90;;;;;;5053500;28;20167;-64
2023/10/29 09:30:40;;;;;;;11.65;2.75;;;13.90;99.90;;;;;;5053356;28;20221;-64
2023/10/29 09:33:08;;;;;;;7.82;2.30;;;13.80;99.90;;;;;;5053286;28;20637;-64
2023/10/29 09:35:35;;;;;;;6.78;1.92;;;13.70;99.90;;;;;;5053275;28;20171;-63
2023/10/29 09:38:01;;;;;;;10.02;2.90;;;13.80;99.90;;;;;;5053007;28;20211;-65
2023/10/29 09:40:26;;;;;;;9.52;2.97;;;13.80;99.90;;;;;;5053377;28;20171;-64
2023/10/29 09:42:54;;;;;;;8.45;2.42;;;13.70;99.90;;;;;;5053303;28;20172;-64
2023/10/29 09:45:26;;;;;;;8.02;2.70;;;13.70;99.90;;;;;;5053418;28;20510;-65
2023/10/29 09:47:57;;;;;;;10.02;2.50;;;13.70;99.90;;;;;;5053119;28;20179;-65
2023/10/29 09:50:23;;;;;;;11.93;2.58;;;13.70;99.90;;;;;;5052991;28;20266;-64
2023/10/29 09:52:50;;;;;;;8.82;2.40;;;13.80;99.90;;;;;;5053446;28;20183;-64
2023/10/29 09:55:19;;;;;;;10.35;2.83;;;13.70;99.90;;;;;;5053222;28;20186;-64
2023/10/29 09:57:46;;;;;;;7.88;2.80;;;13.80;99.90;;;;;;5052980;28;20676;-63
2023/10/29 10:00:15;;;;;;;9.40;2.42;;;13.80;99.90;;;;;;5053877;28;20171;-64
2023/10/29 10:02:56;;;;;;;8.13;2.35;;;13.70;99.90;;;;;;5057164;28;20167;-64
2023/10/29 10:05:24;;;;;;;9.05;2.28;;;13.80;99.90;;;;;;5057343;28;20171;-63
2023/10/29 10:07:53;;;;;;;6.72;2.40;;;13.80;99.90;;;;;;5057176;28;20258;-64
2023/10/29 10:10:20;;;;;;;7.82;2.53;;;13.80;99.90;;;;;;5057111;28;20179;-64
2023/10/29 10:12:50;;;;;;;10.43;2.97;;;13.80;99.90;;;;;;5056937;28;20179;-64
2023/10/29 10:15:17;;;;;;;10.00;2.95;;;13.80;99.90;;;;;;5056903;28;20175;-64
2023/10/29 10:17:57;;;;;;;11.32;2.60;;;13.70;99.90;;;;;;5056729;28;20207;-64
2023/10/29 10:20:24;;;;;;;11.13;3.33;;;13.80;99.90;;;;;;5056886;28;20230;-63
2023/10/29 10:23:04;;;;;;;10.27;2.83;;;13.80;99.90;;;;;;5056837;28;20578;-64
2023/10/29 10:25:31;;;;;;;8.13;2.60;;;13.80;99.90;;;;;;5056679;28;20175;-65
2023/10/29 10:27:58;;;;;;;8.80;2.55;;;13.60;99.90;;;;;;5056622;28;20206;-64
2023/10/29 10:30:33;;;;;;;9.48;2.60;;;13.70;99.90;;;;;;5056812;28;20171;-64
2023/10/29 10:33:10;;;;;;;6.47;2.55;;;13.70;99.90;;;;;;5056715;28;20179;-64
2023/10/29 10:35:50;;;;;;;9.77;2.80;;;13.70;99.90;;;;;;5056616;28;20168;-64
2023/10/29 10:38:16;;;;;;;9.98;3.20;;;13.60;99.90;;;;;;5056414;28;20268;-65
2023/10/29 10:40:42;;;;;;;7.05;2.45;;;13.50;99.90;;;;;;5056293;28;20175;-65
2023/10/29 10:43:08;;;;;;;9.50;3.28;;;13.50;99.90;;;;;;5056390;28;20179;-65
2023/10/29 10:45:36;;;;;;;10.30;2.53;;;13.50;99.90;;;;;;5056331;28;20228;-65
2023/10/29 10:48:04;;;;;;;7.13;2.85;;;13.60;99.90;;;;;;5056291;28;20184;-65
2023/10/29 10:50:30;;;;;;;9.90;2.60;;;13.60;99.90;;;;;;5056207;28;20175;-65
2023/10/29 10:52:57;;;;;;;10.25;2.72;;;13.70;99.90;;;;;;5056199;28;20187;-65
2023/10/29 10:55:24;;;;;;;12.18;3.05;;;13.70;99.90;;;;;;5056348;28;20172;-65
2023/10/29 10:57:50;;;;;;;7.38;2.40;;;13.60;99.90;;;;;;5056439;28;20302;-65
2023/10/29 11:00:21;;;;;;;7.47;2.70;;;13.60;99.90;;;;;;5056170;28;20262;-64
2023/10/29 11:02:49;;;;;;;9.82;2.58;;;13.60;99.90;;;;;;5056120;28;20171;-65
2023/10/29 11:05:16;;;;;;;13.15;2.63;;;13.60;99.90;;;;;;5055969;28;20534;-64
2023/10/29 11:07:42;;;;;;;10.25;3.00;;;13.70;99.90;;;;;;5056208;28;20644;-65
2023/10/29 11:10:12;;;;;;;10.02;2.63;;;13.80;99.90;;;;;;5055998;28;20186;-65
2023/10/29 11:12:39;;;;;;;10.63;2.88;;;14.00;99.90;;;;;;5054600;28;20272;-65
2023/10/29 11:15:16;;;;;;;10.35;3.25;;;14.20;99.90;;;;;;5055767;28;20637;-65
2023/10/29 11:17:58;;;;;;;9.27;2.53;;;14.40;99.90;;;;;;5055629;28;20221;-64
2023/10/29 11:20:50;;;;;;;10.63;2.83;;;14.60;99.90;;;;;;5055684;28;20691;-63
2023/10/29 11:23:21;;;;;;;8.10;2.40;;;14.60;99.90;;;;;;5053475;28;20199;-64
2023/10/29 11:25:47;;;;;;;9.93;2.75;;;14.60;99.90;;;;;;5055839;28;20505;-64
2023/10/29 11:28:25;;;;;;;8.65;2.50;;;14.60;99.90;;;;;;5055530;28;20182;-64
2023/10/29 11:31:16;;;;;;;10.18;2.80;;;14.70;99.90;;;;;;5055705;28;20170;-64
2023/10/29 11:33:44;;;;;;;10.85;2.67;;;14.70;99.90;;;;;;5055844;28;20179;-64
2023/10/29 11:36:28;;;;;;;11.43;2.95;;;14.60;99.90;;;;;;5055450;28;20171;-65
2023/10/29 11:38:53;;;;;;;9.30;2.67;;;14.60;99.90;;;;;;5055207;28;20199;-64
2023/10/29 11:41:35;;;;;;;10.40;2.80;;;14.50;99.90;;;;;;5055512;28;20191;-65
2023/10/29 11:44:19;;;;;;;9.68;3.08;;;14.50;99.90;;;;;;5055525;28;20694;-64
2023/10/29 11:47:06;;;;;;;9.73;2.45;;;14.50;99.90;;;;;;5055262;28;20202;-64
2023/10/29 11:49:44;;;;;;;7.85;2.30;;;14.30;99.90;;;;;;5055278;28;20190;-65
2023/10/29 11:52:10;;;;;;;9.77;2.45;;;14.20;99.90;;;;;;5055301;28;20166;-65
2023/10/29 11:54:38;;;;;;;9.82;3.00;;;14.30;99.90;;;;;;5055209;28;20210;-64
2023/10/29 11:57:08;;;;;;;10.77;3.13;;;14.20;99.90;;;;;;5055030;28;20183;-65
2023/10/29 11:59:34;;;;;;;8.27;2.80;;;14.10;99.90;;;;;;5054928;28;20207;-63
2023/10/29 12:02:00;;;;;;;7.97;2.70;;;14.10;99.90;;;;;;5054908;28;20176;-64
2023/10/29 12:04:32;;;;;;;9.45;3.03;;;14.10;99.90;;;;;;5055053;28;20203;-64
2023/10/29 12:06:58;;;;;;;8.43;2.70;;;14.00;99.90;;;;;;5055014;28;20178;-63
2023/10/29 12:09:25;;;;;;;8.65;2.35;;;13.80;99.90;;;;;;5053634;28;20183;-64
2023/10/29 12:11:53;;;;;;;8.75;2.75;;;13.80;99.90;;;;;;5053552;28;20655;-64
2023/10/29 12:14:42;;;;;;;8.23;2.10;;;13.80;99.90;;;;;;5054641;28;20177;-64
2023/10/29 12:17:08;;;;;;;6.90;2.75;;;13.70;99.90;;;;;;5054589;28;20178;-63
2023/10/29 12:19:37;;;;;;;7.65;2.13;;;13.50;99.90;;;;;;5054413;28;20695;-63
2023/10/29 12:22:17;;;;;;;9.40;2.50;;;13.50;99.90;;;;;;5054326;28;20234;-62
2023/10/29 12:24:43;;;;;;;7.32;2.38;;;13.40;99.90;;;;;;5054178;28;20264;-63
2023/10/29 12:27:09;;;;;;;6.22;2.30;;;13.40;99.90;;;;;;5054622;28;20175;-63
2023/10/29 12:29:35;;;;;;;7.18;2.05;;;13.30;99.90;;;;;;5054483;28;20217;-63
2023/10/29 12:32:01;;;;;;;6.30;2.20;;;13.30;99.90;;;;;;5054561;28;20172;-64
2023/10/29 12:34:27;;;;;;;9.68;2.40;;;13.20;99.90;;;;;;5054363;28;20186;-63
2023/10/29 12:36:54;;;;;;;9.85;2.55;;;13.20;99.90;;;;;;5054325;28;20163;-63
2023/10/29 12:39:19;;;;;;;9.25;2.00;;;13.00;99.90;;;;;;5053998;28;20215;-63
2023/10/29 12:41:52;;;;;;;6.45;2.00;;;13.00;99.90;;;;;;5054595;28;20181;-63
2023/10/29 12:44:18;;;;;;;10.30;2.20;;;13.00;99.90;;;;;;5054177;28;20183;-63